Time;durP1;ratioP1;P1;durP2;ratioP2;P2;SDS_P1;SDS_P2;PMS_P1;PMS_P2;Temp;Humidity;BMP_temperature;BMP_pressure;BME280_temperature;BME280_humidity;BME280_pressure;Samples;Min_cycle;Max_cycle;Signal;HPM_P1;HPM_P2
2023/03/30 00:01:29;;;;;;;3.13;1.10;;;10.30;99.90;;;;;;5119050;27;20122;-86
2023/03/30 00:03:57;;;;;;;2.55;1.50;;;10.40;99.90;;;;;;5118658;27;20047;-86
2023/03/30 00:06:23;;;;;;;3.35;1.65;;;10.30;99.90;;;;;;5101532;27;20123;-86
2023/03/30 00:08:56;;;;;;;2.33;1.50;;;10.40;99.90;;;;;;5137105;27;20087;-86
2023/03/30 00:11:22;;;;;;;1.88;1.58;;;9.30;99.90;;;;;;5101411;27;20196;-86
2023/03/30 00:13:49;;;;;;;1.58;1.13;;;10.40;99.90;;;;;;5136957;27;20134;-86
2023/03/30 00:16:16;;;;;;;1.63;1.35;;;10.40;99.90;;;;;;5118079;27;20051;-86
2023/03/30 00:18:43;;;;;;;;;;;10.40;99.90;;;;;;5118481;27;20413;-87
2023/03/30 00:21:10;;;;;;;3.05;1.17;;;10.40;99.90;;;;;;5118301;27;19919;-86
2023/03/30 00:23:37;;;;;;;;;;;10.40;99.90;;;;;;5102014;27;20405;-86
2023/03/30 00:26:03;;;;;;;1.10;0.77;;;10.40;99.90;;;;;;5118390;27;20381;-86
2023/03/30 00:28:30;;;;;;;1.65;1.10;;;10.40;99.90;;;;;;5100932;27;20489;-86
2023/03/30 00:30:56;;;;;;;1.48;0.98;;;10.50;99.90;;;;;;5117873;27;20039;-86
2023/03/30 00:33:21;;;;;;;2.55;1.25;;;10.50;99.90;;;;;;5117756;27;20047;-86
2023/03/30 00:35:55;;;;;;;1.30;1.00;;;10.40;99.90;;;;;;5118151;27;20042;-86
2023/03/30 00:38:22;;;;;;;1.23;1.15;;;10.50;99.90;;;;;;5117952;27;20070;-86
2023/03/30 00:40:52;;;;;;;;;;;10.50;99.90;;;;;;5136847;27;20043;-86
2023/03/30 00:43:18;;;;;;;0.55;0.43;;;10.50;99.90;;;;;;5117788;27;20281;-87
2023/03/30 00:45:44;;;;;;;0.80;0.80;;;10.50;99.90;;;;;;5118315;27;20134;-86
2023/03/30 00:48:17;;;;;;;1.05;0.55;;;10.50;99.90;;;;;;5083391;27;20126;-89
2023/03/30 00:51:03;;;;;;;1.05;0.88;;;10.50;99.90;;;;;;5118058;27;20048;-86
2023/03/30 00:53:41;;;;;;;1.00;0.60;;;10.50;99.90;;;;;;5100773;27;20058;-86
2023/03/30 00:56:09;;;;;;;2.35;1.13;;;10.50;99.90;;;;;;5117643;27;20051;-87
2023/03/30 00:58:37;;;;;;;1.88;1.27;;;10.50;99.90;;;;;;5117565;27;20043;-86
2023/03/30 01:01:06;;;;;;;0.50;0.50;;;10.50;99.90;;;;;;5117840;27;20469;-86
2023/03/30 01:03:36;;;;;;;1.83;0.88;;;9.70;99.90;;;;;;5117232;27;20051;-86
2023/03/30 01:06:06;;;;;;;1.17;0.70;;;10.50;99.90;;;;;;5100634;27;20096;-86
2023/03/30 01:08:33;;;;;;;0.40;0.40;;;9.60;99.90;;;;;;5117199;27;20613;-86
2023/03/30 01:11:05;;;;;;;2.15;0.60;;;10.60;99.90;;;;;;5117677;27;20043;-86
2023/03/30 01:13:41;;;;;;;0.85;0.65;;;10.70;99.90;;;;;;5117318;27;20435;-87
2023/03/30 01:16:51;;;;;;;4.03;1.23;;;10.70;99.90;;;;;;5100092;27;20049;-87
2023/03/30 01:19:29;;;;;;;1.75;1.15;;;10.70;99.90;;;;;;5114352;27;20443;-87
2023/03/30 01:22:15;;;;;;;0.98;0.73;;;10.80;99.90;;;;;;5117596;27;20049;-86
2023/03/30 01:25:13;;;;;;;1.13;1.00;;;10.80;99.90;;;;;;5099931;27;20051;-86
2023/03/30 01:27:58;;;;;;;;;;;10.80;99.90;;;;;;5117271;27;20062;-86
2023/03/30 01:30:25;;;;;;;1.08;0.60;;;10.80;99.90;;;;;;5100360;27;20273;-87
2023/03/30 01:33:09;;;;;;;0.38;0.38;;;10.80;99.90;;;;;;5116970;27;20047;-86
2023/03/30 01:36:00;;;;;;;0.55;0.45;;;10.80;99.90;;;;;;5117363;27;20100;-87
2023/03/30 01:38:40;;;;;;;2.47;0.95;;;10.80;99.90;;;;;;5116745;27;20043;-87
2023/03/30 01:41:43;;;;;;;0.73;0.47;;;10.80;99.90;;;;;;5117859;27;20126;-87
2023/03/30 01:44:39;;;;;;;1.13;0.60;;;10.80;99.90;;;;;;5116738;27;20506;-86
2023/03/30 01:47:37;;;;;;;0.40;0.40;;;10.80;99.90;;;;;;5117011;27;20062;-85
2023/03/30 01:50:12;;;;;;;0.85;0.82;;;10.80;99.90;;;;;;5091062;27;20059;-85
2023/03/30 01:52:53;;;;;;;0.93;0.68;;;10.80;99.90;;;;;;5116544;27;20043;-85
2023/03/30 01:55:37;;;;;;;0.65;0.52;;;10.80;99.90;;;;;;5116401;27;20046;-87
2023/03/30 01:58:21;;;;;;;0.45;0.30;;;10.80;99.90;;;;;;5116638;27;20058;-87
2023/03/30 02:00:50;;;;;;;1.23;1.10;;;10.80;99.90;;;;;;5099900;27;20091;-85
2023/03/30 02:03:26;;;;;;;0.50;0.32;;;10.80;99.90;;;;;;5134713;27;20042;-85
2023/03/30 02:05:57;;;;;;;0.88;0.70;;;10.80;99.90;;;;;;5116668;27;20047;-85
2023/03/30 02:08:31;;;;;;;0.73;0.73;;;10.80;99.90;;;;;;5116192;27;20480;-86
2023/03/30 02:10:58;;;;;;;1.98;0.52;;;10.80;99.90;;;;;;5116583;27;20093;-86
2023/03/30 02:13:26;;;;;;;;;;;10.70;99.90;;;;;;5098990;27;20126;-82
2023/03/30 02:15:58;;;;;;;1.75;0.65;;;10.70;99.90;;;;;;5116383;27;19927;-81
2023/03/30 02:18:24;;;;;;;1.25;0.80;;;10.70;99.90;;;;;;5115574;27;20438;-81
2023/03/30 02:20:50;;;;;;;1.27;0.60;;;10.70;99.90;;;;;;5134823;27;20047;-81
2023/03/30 02:23:21;;;;;;;2.38;0.65;;;10.70;99.90;;;;;;5135052;27;20058;-81
2023/03/30 02:25:48;;;;;;;0.65;0.57;;;10.70;99.90;;;;;;5116591;27;20047;-81
2023/03/30 02:28:15;;;;;;;1.63;1.52;;;10.70;99.90;;;;;;5095724;28;20059;-82
2023/03/30 02:30:44;;;;;;;0.75;0.70;;;10.70;99.90;;;;;;5095474;28;20051;-81
2023/03/30 02:33:28;;;;;;;1.02;0.60;;;10.70;99.90;;;;;;5114132;28;20043;-81
2023/03/30 02:35:59;;;;;;;0.52;0.47;;;10.70;99.90;;;;;;5095865;28;20401;-82
2023/03/30 02:38:34;;;;;;;0.98;0.68;;;10.70;99.90;;;;;;5112503;28;20134;-86
2023/03/30 02:41:12;;;;;;;1.58;0.80;;;10.80;99.90;;;;;;5112929;28;20083;-81
2023/03/30 02:43:52;;;;;;;0.55;0.55;;;10.80;99.90;;;;;;5095506;28;20039;-81
2023/03/30 02:46:28;;;;;;;0.88;0.65;;;10.80;99.90;;;;;;5079334;28;20094;-82
2023/03/30 02:48:56;;;;;;;1.13;0.50;;;10.80;99.90;;;;;;5095594;28;20043;-82
2023/03/30 02:51:43;;;;;;;1.75;0.80;;;10.80;99.90;;;;;;5095554;28;20087;-82
2023/03/30 02:54:31;;;;;;;2.17;2.08;;;10.80;99.90;;;;;;5113695;28;20138;-81
2023/03/30 02:57:02;;;;;;;1.13;0.73;;;10.80;99.90;;;;;;5113494;28;20042;-82
2023/03/30 02:59:56;;;;;;;0.40;0.40;;;10.80;99.90;;;;;;5095163;28;20051;-84
2023/03/30 03:02:28;;;;;;;0.60;0.60;;;10.80;99.90;;;;;;5095155;28;20543;-82
2023/03/30 03:04:54;;;;;;;0.55;0.30;;;10.80;99.90;;;;;;5095554;28;20079;-82
2023/03/30 03:07:21;;;;;;;0.47;0.47;;;10.80;99.90;;;;;;5095494;28;20048;-82
2023/03/30 03:09:47;;;;;;;0.40;0.38;;;10.70;99.90;;;;;;5111922;28;20058;-82
2023/03/30 03:12:13;;;;;;;0.38;0.38;;;10.70;99.90;;;;;;5112314;28;20070;-82
2023/03/30 03:14:38;;;;;;;0.33;0.30;;;10.60;99.90;;;;;;5112862;28;20048;-82
2023/03/30 03:17:04;;;;;;;0.80;0.30;;;10.60;99.90;;;;;;5113411;28;20040;-82
2023/03/30 03:19:30;;;;;;;0.60;0.60;;;10.60;99.90;;;;;;5113105;28;20039;-87
2023/03/30 03:21:56;;;;;;;0.88;0.75;;;10.70;99.90;;;;;;5095144;28;20371;-81
2023/03/30 03:24:22;;;;;;;1.42;0.50;;;10.70;99.90;;;;;;5095284;28;20050;-81
2023/03/30 03:26:48;;;;;;;1.27;0.20;;;10.70;99.90;;;;;;5111289;28;20051;-81
2023/03/30 03:29:14;;;;;;;0.43;0.40;;;10.70;99.90;;;;;;5113100;28;20059;-81
2023/03/30 03:31:40;;;;;;;0.73;0.73;;;10.70;99.90;;;;;;5098606;28;20097;-82
2023/03/30 03:34:06;;;;;;;9.20;0.80;;;10.70;99.90;;;;;;5099560;28;20035;-82
2023/03/30 03:36:32;;;;;;;0.38;0.38;;;10.70;99.90;;;;;;5099004;28;20042;-83
2023/03/30 03:38:58;;;;;;;2.00;0.60;;;10.70;99.90;;;;;;5116245;28;20045;-82
2023/03/30 03:41:23;;;;;;;0.83;0.67;;;10.70;99.90;;;;;;5082625;28;20048;-82
2023/03/30 03:43:49;;;;;;;0.63;0.50;;;10.70;99.90;;;;;;5116601;28;20043;-82
2023/03/30 03:46:15;;;;;;;1.77;0.57;;;10.70;99.90;;;;;;5082394;28;20047;-81
2023/03/30 03:48:41;;;;;;;1.20;0.70;;;10.80;99.90;;;;;;5098926;28;20040;-82
2023/03/30 03:51:08;;;;;;;0.87;0.50;;;10.80;99.90;;;;;;5117421;28;20079;-82
2023/03/30 03:53:34;;;;;;;0.35;0.35;;;10.80;99.90;;;;;;5117001;28;20401;-88
2023/03/30 03:56:01;;;;;;;1.10;0.82;;;10.80;99.90;;;;;;5098904;28;20073;-81
2023/03/30 03:58:27;;;;;;;0.20;0.20;;;10.80;99.90;;;;;;5082020;28;20047;-81
2023/03/30 04:01:00;;;;;;;0.35;0.35;;;10.90;99.90;;;;;;5116369;28;20493;-82
2023/03/30 04:03:26;;;;;;;0.30;0.30;;;11.00;99.90;;;;;;5082146;28;20054;-82
2023/03/30 04:05:52;;;;;;;0.55;0.40;;;11.00;99.90;;;;;;5116188;28;20544;-81
2023/03/30 04:08:17;;;;;;;1.33;0.33;;;11.10;99.90;;;;;;5116502;28;20047;-82
2023/03/30 04:10:43;;;;;;;0.70;0.40;;;11.10;99.90;;;;;;5116423;28;20048;-82
2023/03/30 04:13:09;;;;;;;0.83;0.40;;;11.10;99.90;;;;;;5115143;28;20075;-82
2023/03/30 04:15:35;;;;;;;0.13;0.13;;;11.20;99.90;;;;;;5098646;28;20054;-81
2023/03/30 04:18:01;;;;;;;0.37;0.37;;;11.20;99.90;;;;;;5116291;28;20054;-82
2023/03/30 04:20:28;;;;;;;0.88;0.60;;;11.20;99.90;;;;;;5098500;28;20051;-82
2023/03/30 04:22:54;;;;;;;0.88;0.88;;;11.20;99.90;;;;;;5097927;28;20043;-81
2023/03/30 04:25:24;;;;;;;0.52;0.32;;;11.20;99.90;;;;;;5098472;28;20047;-81
2023/03/30 04:27:51;;;;;;;0.22;0.22;;;11.30;99.90;;;;;;5097444;28;20056;-82
2023/03/30 04:30:17;;;;;;;;;;;11.30;99.90;;;;;;5115513;28;20051;-82
2023/03/30 04:32:45;;;;;;;0.30;0.30;;;11.30;99.90;;;;;;5098032;28;20010;-82
2023/03/30 04:35:13;;;;;;;0.05;0.05;;;11.30;99.90;;;;;;5115339;28;20427;-82
2023/03/30 04:37:40;;;;;;;0.38;0.35;;;11.30;99.90;;;;;;5097913;28;20532;-86
2023/03/30 04:40:11;;;;;;;0.85;0.60;;;11.40;99.90;;;;;;5098000;28;20093;-82
2023/03/30 04:42:38;;;;;;;0.15;0.15;;;11.40;99.90;;;;;;5097729;28;20394;-82
2023/03/30 04:45:06;;;;;;;0.38;0.30;;;11.40;99.90;;;;;;5097406;28;20055;-82
2023/03/30 04:47:32;;;;;;;1.00;0.45;;;11.40;99.90;;;;;;5097770;28;20051;-82
2023/03/30 04:49:58;;;;;;;0.20;0.20;;;11.50;99.90;;;;;;5115450;28;20070;-82
2023/03/30 04:52:24;;;;;;;0.20;0.20;;;11.50;99.90;;;;;;5115807;28;20541;-81
2023/03/30 04:54:49;;;;;;;0.30;0.30;;;11.50;99.90;;;;;;5080160;28;20081;-82
2023/03/30 04:57:15;;;;;;;0.30;0.30;;;11.50;99.90;;;;;;5114370;28;20079;-82
2023/03/30 04:59:42;;;;;;;0.10;0.10;;;11.60;99.90;;;;;;5114937;28;20051;-86
2023/03/30 05:02:10;;;;;;;0.35;0.22;;;11.60;99.90;;;;;;5115442;28;20047;-82
2023/03/30 05:04:36;;;;;;;0.60;0.30;;;11.60;99.90;;;;;;5097688;28;20059;-82
2023/03/30 05:07:04;;;;;;;0.32;0.32;;;11.60;99.90;;;;;;5115175;28;20074;-81
2023/03/30 05:09:29;;;;;;;0.20;0.20;;;11.50;99.90;;;;;;5097429;28;20553;-81
2023/03/30 05:11:55;;;;;;;0.47;0.30;;;11.50;99.90;;;;;;5113719;28;20177;-81
2023/03/30 05:14:21;;;;;;;0.87;0.40;;;11.40;99.90;;;;;;5097238;28;20083;-81
2023/03/30 05:16:47;;;;;;;1.63;0.57;;;11.30;99.90;;;;;;5096384;28;20039;-83
2023/03/30 05:19:12;;;;;;;0.27;0.27;;;11.20;99.90;;;;;;5114907;28;20048;-81
2023/03/30 05:21:38;;;;;;;0.90;0.20;;;11.20;99.90;;;;;;5097086;28;20763;-81
2023/03/30 05:24:04;;;;;;;0.40;0.30;;;11.20;99.90;;;;;;5114853;28;20048;-81
2023/03/30 05:26:30;;;;;;;0.40;0.30;;;11.10;99.90;;;;;;5097295;28;20298;-81
2023/03/30 05:28:56;;;;;;;0.50;0.50;;;11.10;99.90;;;;;;5096202;28;20101;-81
2023/03/30 05:31:22;;;;;;;0.50;0.50;;;11.10;99.90;;;;;;5097164;28;20239;-81
2023/03/30 05:33:48;;;;;;;0.17;0.17;;;11.10;99.90;;;;;;5113535;28;20112;-88
2023/03/30 05:36:14;;;;;;;0.40;0.30;;;11.10;99.90;;;;;;5096954;28;20079;-81
2023/03/30 05:38:40;;;;;;;0.43;0.15;;;11.00;99.90;;;;;;5096686;28;20128;-81
2023/03/30 05:41:06;;;;;;;1.10;0.38;;;11.00;99.90;;;;;;5096604;28;20139;-81
2023/03/30 05:43:35;;;;;;;0.50;0.50;;;11.00;99.90;;;;;;5096765;28;20129;-81
2023/03/30 05:46:01;;;;;;;0.85;0.40;;;11.00;99.90;;;;;;5114607;28;20075;-82
2023/03/30 05:48:28;;;;;;;0.40;0.38;;;11.00;99.90;;;;;;5079918;28;20047;-81
2023/03/30 05:50:54;;;;;;;0.22;0.20;;;10.90;99.90;;;;;;5114158;28;20490;-84
2023/03/30 05:53:20;;;;;;;0.28;0.28;;;10.90;99.90;;;;;;5115794;28;20059;-84
2023/03/30 05:55:47;;;;;;;0.40;0.40;;;10.90;99.90;;;;;;5096698;28;20047;-84
2023/03/30 05:58:13;;;;;;;1.20;0.50;;;10.90;99.90;;;;;;5113010;28;20055;-82
2023/03/30 06:00:40;;;;;;;0.20;0.20;;;10.90;99.90;;;;;;5096871;28;20050;-88
2023/03/30 06:03:10;;;;;;;0.50;0.50;;;11.00;99.90;;;;;;5114039;28;20057;-84
2023/03/30 06:05:44;;;;;;;0.32;0.30;;;11.00;99.90;;;;;;5114657;28;20097;-89
2023/03/30 06:08:10;;;;;;;0.10;0.10;;;11.00;99.90;;;;;;5114073;28;20055;-85
2023/03/30 06:10:36;;;;;;;1.20;0.40;;;11.00;99.90;;;;;;5078785;28;20502;-84
2023/03/30 06:13:02;;;;;;;0.35;0.35;;;11.10;99.90;;;;;;5096066;28;20395;-85
2023/03/30 06:15:28;;;;;;;0.30;0.30;;;11.20;99.90;;;;;;5095976;28;20046;-87
2023/03/30 06:17:54;;;;;;;0.40;0.40;;;11.20;99.90;;;;;;5095640;28;20043;-85
2023/03/30 06:20:20;;;;;;;0.97;0.80;;;11.30;99.90;;;;;;5113230;28;20293;-87
2023/03/30 06:22:50;;;;;;;0.28;0.28;;;11.30;99.90;;;;;;5113665;28;20044;-89
2023/03/30 06:25:18;;;;;;;0.47;0.47;;;11.30;99.90;;;;;;5113001;28;20070;-84
2023/03/30 06:27:45;;;;;;;0.40;0.30;;;11.30;99.90;;;;;;5095078;28;20063;-84
2023/03/30 06:30:11;;;;;;;0.40;0.30;;;11.30;99.90;;;;;;5113364;28;20058;-83
2023/03/30 06:32:37;;;;;;;1.13;0.40;;;11.30;99.90;;;;;;5112478;28;20092;-82
2023/03/30 06:35:03;;;;;;;0.43;0.10;;;11.30;99.90;;;;;;5113787;28;20051;-81
2023/03/30 06:37:35;;;;;;;0.98;0.63;;;11.20;99.90;;;;;;5095925;28;20489;-83
2023/03/30 06:40:06;;;;;;;0.22;0.22;;;11.20;99.90;;;;;;5094871;28;20043;-83
2023/03/30 06:42:32;;;;;;;0.50;0.25;;;11.20;99.90;;;;;;5112776;28;20048;-82
2023/03/30 06:44:58;;;;;;;0.30;0.30;;;11.20;99.90;;;;;;5095322;28;20058;-86
2023/03/30 06:47:23;;;;;;;0.97;0.50;;;11.40;99.90;;;;;;5113793;28;20040;-82
2023/03/30 06:49:49;;;;;;;0.40;0.40;;;11.40;99.90;;;;;;5062388;28;20051;-81
2023/03/30 06:52:16;;;;;;;0.43;0.20;;;11.60;99.90;;;;;;5112196;28;20432;-82
2023/03/30 06:54:41;;;;;;;0.55;0.55;;;11.70;99.90;;;;;;5095905;28;20122;-81
2023/03/30 06:57:07;;;;;;;0.83;0.40;;;11.60;99.90;;;;;;5113387;28;20190;-82
2023/03/30 06:59:33;;;;;;;0.40;0.27;;;11.60;99.90;;;;;;5113626;28;20043;-83
2023/03/30 07:01:59;;;;;;;0.13;0.13;;;11.50;99.90;;;;;;5113419;28;20066;-89
2023/03/30 07:04:25;;;;;;;0.40;0.40;;;11.50;99.90;;;;;;5113347;28;20469;-83
2023/03/30 07:06:51;;;;;;;0.55;0.50;;;11.60;99.90;;;;;;5095844;28;20098;-83
2023/03/30 07:09:17;;;;;;;0.30;0.30;;;11.60;99.90;;;;;;5095287;28;20039;-83
2023/03/30 07:11:43;;;;;;;0.32;0.32;;;11.60;99.90;;;;;;5095473;28;20091;-83
2023/03/30 07:14:10;;;;;;;0.47;0.47;;;11.70;99.90;;;;;;5078132;28;20090;-85
2023/03/30 07:16:37;;;;;;;0.20;0.20;;;11.70;99.90;;;;;;5111925;28;20044;-82
2023/03/30 07:19:04;;;;;;;0.40;0.40;;;11.70;99.90;;;;;;5094810;28;20048;-85
2023/03/30 07:21:31;;;;;;;0.28;0.17;;;11.60;99.90;;;;;;5094651;28;20056;-82
2023/03/30 07:23:59;;;;;;;0.15;0.15;;;11.60;99.90;;;;;;5113399;28;20138;-80
2023/03/30 07:26:27;;;;;;;0.38;0.38;;;11.60;99.90;;;;;;5113148;28;20122;-81
2023/03/30 07:28:55;;;;;;;1.02;0.32;;;11.60;99.90;;;;;;5091687;28;20118;-85
2023/03/30 07:31:22;;;;;;;0.90;0.40;;;11.60;99.90;;;;;;5108433;28;20055;-79
2023/03/30 07:33:48;;;;;;;0.30;0.28;;;11.60;99.90;;;;;;5113340;28;20051;-79
2023/03/30 07:36:14;;;;;;;0.43;0.35;;;11.70;99.90;;;;;;5113036;28;20055;-79
2023/03/30 07:38:39;;;;;;;0.30;0.30;;;11.70;99.90;;;;;;5113388;28;20147;-79
2023/03/30 07:41:11;;;;;;;0.50;0.50;;;11.70;99.90;;;;;;5113087;28;20126;-80
2023/03/30 07:43:39;;;;;;;0.38;0.28;;;11.70;99.90;;;;;;5095735;28;20402;-80
2023/03/30 07:46:05;;;;;;;0.70;0.60;;;11.70;99.90;;;;;;5113277;28;20096;-80
2023/03/30 07:48:31;;;;;;;0.57;0.52;;;11.70;99.90;;;;;;5113207;28;20172;-79
2023/03/30 07:51:01;;;;;;;0.20;0.20;;;11.70;99.90;;;;;;5113526;28;20503;-79
2023/03/30 07:53:27;;;;;;;1.05;0.35;;;11.70;99.90;;;;;;5112890;28;20079;-79
2023/03/30 07:55:54;;;;;;;0.57;0.40;;;11.70;99.90;;;;;;5112789;28;20509;-79
2023/03/30 07:58:20;;;;;;;0.30;0.30;;;11.70;99.90;;;;;;5113019;28;20048;-79
2023/03/30 08:00:47;;;;;;;0.50;0.50;;;11.70;99.90;;;;;;5112948;28;20047;-79
2023/03/30 08:03:13;;;;;;;0.40;0.40;;;11.70;99.90;;;;;;5113071;28;20513;-80
2023/03/30 08:05:39;;;;;;;0.00;0.00;;;11.60;99.90;;;;;;5113209;28;20044;-79
2023/03/30 08:08:04;;;;;;;0.37;0.20;;;11.60;99.90;;;;;;5078407;28;20051;-79
2023/03/30 08:10:30;;;;;;;0.20;0.20;;;11.60;99.90;;;;;;5095023;28;20079;-79
2023/03/30 08:12:56;;;;;;;3.83;0.30;;;11.60;99.90;;;;;;5113203;28;20044;-79
2023/03/30 08:15:21;;;;;;;0.60;0.60;;;11.60;99.90;;;;;;5094903;28;20063;-80
2023/03/30 08:17:47;;;;;;;0.10;0.10;;;11.60;99.90;;;;;;5116397;28;20044;-79
2023/03/30 08:20:12;;;;;;;0.20;0.20;;;11.60;99.90;;;;;;5116873;28;20051;-80
2023/03/30 08:22:38;;;;;;;0.53;0.40;;;11.60;99.90;;;;;;5116921;28;20433;-79
2023/03/30 08:25:04;;;;;;;0.30;0.30;;;11.50;99.90;;;;;;5116638;28;20070;-79
2023/03/30 08:27:30;;;;;;;0.20;0.20;;;11.50;99.90;;;;;;5098061;28;20338;-80
2023/03/30 08:29:56;;;;;;;1.13;1.03;;;11.50;99.90;;;;;;5116317;28;20091;-79
2023/03/30 08:32:22;;;;;;;0.73;0.40;;;11.40;99.90;;;;;;5116156;28;20050;-80
2023/03/30 08:34:48;;;;;;;0.30;0.25;;;11.40;99.90;;;;;;5098633;28;20374;-79
2023/03/30 08:37:14;;;;;;;0.47;0.22;;;11.40;99.90;;;;;;5097826;28;20110;-80
2023/03/30 08:39:39;;;;;;;0.37;0.30;;;11.40;99.90;;;;;;5116243;28;20051;-79
2023/03/30 08:42:56;;;;;;;0.20;0.20;;;11.40;99.90;;;;;;5098305;28;20058;-79
2023/03/30 08:45:22;;;;;;;0.17;0.08;;;11.50;99.90;;;;;;5092230;28;20059;-79
2023/03/30 08:47:51;;;;;;;0.47;0.47;;;11.60;99.90;;;;;;5116082;28;20047;-79
2023/03/30 08:50:20;;;;;;;0.22;0.22;;;11.60;99.90;;;;;;5080690;28;20044;-80
2023/03/30 08:52:46;;;;;;;0.30;0.30;;;11.60;99.90;;;;;;5115939;28;20062;-79
2023/03/30 08:55:37;;;;;;;0.10;0.10;;;11.60;99.90;;;;;;5081089;28;20051;-79
2023/03/30 08:58:16;;;;;;;0.20;0.10;;;11.60;99.90;;;;;;5115965;28;20051;-79
2023/03/30 09:00:58;;;;;;;0.63;0.10;;;11.60;99.90;;;;;;5115914;28;20068;-80
2023/03/30 09:03:58;;;;;;;0.47;0.47;;;11.50;99.90;;;;;;5115580;28;20130;-80
2023/03/30 09:06:44;;;;;;;0.40;0.40;;;11.60;99.90;;;;;;5115146;28;20044;-79
2023/03/30 09:09:13;;;;;;;0.40;0.22;;;11.60;99.90;;;;;;5115627;28;20047;-79
2023/03/30 09:11:39;;;;;;;0.10;0.10;;;11.70;99.90;;;;;;5115445;28;20043;-79
2023/03/30 09:14:11;;;;;;;0.32;0.32;;;11.80;99.90;;;;;;5115597;28;20058;-79
2023/03/30 09:17:10;;;;;;;0.32;0.20;;;11.80;99.90;;;;;;5115287;28;20040;-80
2023/03/30 09:19:48;;;;;;;0.45;0.20;;;11.80;99.90;;;;;;5091940;28;20210;-79
2023/03/30 09:22:17;;;;;;;0.28;0.13;;;11.90;99.90;;;;;;5115504;28;20079;-79
2023/03/30 09:24:42;;;;;;;0.00;0.00;;;11.90;99.90;;;;;;5115345;28;20043;-80
2023/03/30 09:27:21;;;;;;;0.10;0.10;;;12.00;99.90;;;;;;5115626;28;20100;-80
2023/03/30 09:29:50;;;;;;;0.10;0.10;;;12.20;99.90;;;;;;5115777;28;20055;-80
2023/03/30 09:32:39;;;;;;;0.43;0.43;;;12.40;99.90;;;;;;5115600;28;20093;-80
2023/03/30 09:35:13;;;;;;;0.08;0.08;;;12.70;99.90;;;;;;5115245;28;20049;-80
2023/03/30 09:37:39;;;;;;;0.20;0.15;;;12.70;99.90;;;;;;5115228;28;20088;-80
2023/03/30 09:40:40;;;;;;;0.00;0.00;;;12.70;99.90;;;;;;5097388;28;20039;-80
2023/03/30 09:43:17;;;;;;;0.45;0.40;;;12.60;99.90;;;;;;5106887;28;20582;-80
2023/03/30 09:45:44;;;;;;;0.25;0.00;;;12.60;99.90;;;;;;5114918;28;20150;-80
2023/03/30 09:48:10;;;;;;;0.00;0.00;;;12.70;99.90;;;;;;5114897;28;20055;-80
2023/03/30 09:50:39;;;;;;;0.00;0.00;;;12.70;99.90;;;;;;5114646;28;20047;-80
2023/03/30 09:53:20;;;;;;;1.95;0.20;;;12.70;99.90;;;;;;5114876;28;20441;-80
2023/03/30 09:56:15;;;;;;;0.28;0.05;;;12.60;99.90;;;;;;5114928;28;20054;-80
2023/03/30 09:58:41;;;;;;;0.00;0.00;;;12.60;99.90;;;;;;5114880;28;20234;-80
2023/03/30 10:01:12;;;;;;;0.00;0.00;;;12.50;99.90;;;;;;5114732;28;20428;-80
2023/03/30 10:03:40;;;;;;;0.28;0.20;;;12.40;99.90;;;;;;5096307;28;20039;-80
2023/03/30 10:06:11;;;;;;;1.20;0.30;;;12.30;99.90;;;;;;5114563;28;20044;-80
2023/03/30 10:09:05;;;;;;;0.00;0.00;;;12.30;99.90;;;;;;5096207;28;20069;-80
2023/03/30 10:11:39;;;;;;;0.20;0.20;;;12.20;99.90;;;;;;5112613;28;20066;-80
2023/03/30 10:14:15;;;;;;;2.90;0.45;;;12.10;99.90;;;;;;5114524;28;20048;-80
2023/03/30 10:16:43;;;;;;;0.00;0.00;;;12.20;99.90;;;;;;5114232;28;20122;-80
2023/03/30 10:19:17;;;;;;;0.10;0.10;;;12.20;99.90;;;;;;5096426;28;20058;-80
2023/03/30 10:21:45;;;;;;;0.13;0.10;;;12.30;99.90;;;;;;5096411;28;20048;-80
2023/03/30 10:24:14;;;;;;;0.30;0.30;;;12.30;99.90;;;;;;5114435;28;20083;-80
2023/03/30 10:26:45;;;;;;;1.33;1.23;;;12.30;99.90;;;;;;5113903;28;20040;-81
2023/03/30 10:29:18;;;;;;;0.68;0.30;;;12.40;99.90;;;;;;5114302;28;20066;-80
2023/03/30 10:31:46;;;;;;;0.05;0.05;;;12.50;99.90;;;;;;5114383;28;20113;-80
2023/03/30 10:34:19;;;;;;;0.13;0.05;;;12.50;99.90;;;;;;5114197;28;20043;-80
2023/03/30 10:36:47;;;;;;;0.20;0.10;;;12.50;99.90;;;;;;5113528;28;20498;-80
2023/03/30 10:39:24;;;;;;;1.23;0.25;;;12.50;99.90;;;;;;5095480;28;20126;-80
2023/03/30 10:41:53;;;;;;;0.00;0.00;;;12.50;99.90;;;;;;5113790;28;20048;-80
2023/03/30 10:44:34;;;;;;;0.00;0.00;;;12.50;99.90;;;;;;5114114;28;20398;-80
2023/03/30 10:47:32;;;;;;;0.08;0.08;;;12.50;99.90;;;;;;5114273;28;20413;-80
2023/03/30 10:50:09;;;;;;;11.02;0.35;;;12.60;99.90;;;;;;5079161;28;20128;-80
2023/03/30 10:52:54;;;;;;;0.15;0.15;;;12.70;99.90;;;;;;5095743;28;20139;-80
2023/03/30 10:55:35;;;;;;;0.70;0.55;;;12.70;99.90;;;;;;5096180;28;20092;-80
2023/03/30 10:58:22;;;;;;;0.30;0.20;;;12.80;99.90;;;;;;5113855;28;20481;-80
2023/03/30 11:01:31;;;;;;;0.28;0.28;;;12.70;99.90;;;;;;5113613;28;20075;-80
2023/03/30 11:04:06;;;;;;;0.10;0.10;;;12.70;99.90;;;;;;5113859;28;20117;-80
2023/03/30 11:06:45;;;;;;;0.08;0.08;;;12.70;99.90;;;;;;5113792;28;20054;-81
2023/03/30 11:09:18;;;;;;;0.10;0.10;;;12.80;99.90;;;;;;5113892;28;20040;-80
2023/03/30 11:12:05;;;;;;;0.00;0.00;;;12.90;99.90;;;;;;5095454;28;20058;-80
2023/03/30 11:14:48;;;;;;;0.15;0.10;;;12.90;99.90;;;;;;5113886;28;20128;-80
2023/03/30 11:17:29;;;;;;;0.05;0.05;;;13.00;99.90;;;;;;5113740;28;20389;-80
2023/03/30 11:19:58;;;;;;;0.38;0.08;;;13.10;99.90;;;;;;5095531;28;20126;-80
2023/03/30 11:22:49;;;;;;;0.38;0.20;;;13.20;99.90;;;;;;5113503;28;20051;-80
2023/03/30 11:25:29;;;;;;;0.15;0.10;;;13.30;99.90;;;;;;5113556;28;20078;-80
2023/03/30 11:28:19;;;;;;;0.10;0.10;;;13.30;99.90;;;;;;5113074;28;20036;-80
2023/03/30 11:30:46;;;;;;;0.10;0.03;;;13.40;99.90;;;;;;5113305;28;20048;-80
2023/03/30 11:33:21;;;;;;;1.80;0.10;;;13.60;99.90;;;;;;5113344;28;20445;-80
2023/03/30 11:35:49;;;;;;;1.33;0.10;;;13.70;99.90;;;;;;5113117;28;20087;-80
2023/03/30 11:38:43;;;;;;;0.15;0.10;;;13.90;99.90;;;;;;5113342;28;20055;-79
2023/03/30 11:41:14;;;;;;;0.60;0.60;;;14.00;99.90;;;;;;5113620;28;20091;-80
2023/03/30 11:43:40;;;;;;;1.65;0.50;;;14.10;99.90;;;;;;5113209;28;20035;-81
2023/03/30 11:46:21;;;;;;;1.30;0.13;;;14.20;99.90;;;;;;5095224;28;20077;-80
2023/03/30 11:49:17;;;;;;;0.55;0.28;;;14.30;99.90;;;;;;5113138;28;20050;-80
2023/03/30 11:52:09;;;;;;;1.13;0.08;;;14.40;99.90;;;;;;5097318;28;20408;-80
2023/03/30 11:55:05;;;;;;;0.10;0.10;;;14.50;99.90;;;;;;5117006;28;20500;-80
2023/03/30 11:57:34;;;;;;;0.20;0.20;;;14.60;99.90;;;;;;5098970;28;20050;-79
2023/03/30 12:00:22;;;;;;;1.65;0.60;;;14.80;99.90;;;;;;5116917;28;20051;-80
2023/03/30 12:02:47;;;;;;;;;;;14.90;99.90;;;;;;5117007;28;20478;-80
2023/03/30 12:05:26;;;;;;;0.45;0.13;;;15.20;99.90;;;;;;5117019;28;19941;-80
2023/03/30 12:07:56;;;;;;;0.30;0.15;;;15.10;99.90;;;;;;5116732;28;20040;-80
2023/03/30 12:11:00;;;;;;;0.25;0.20;;;15.00;99.90;;;;;;5117123;28;20051;-80
2023/03/30 12:13:27;;;;;;;0.30;0.28;;;14.90;99.90;;;;;;5075326;28;20462;-80
2023/03/30 12:16:19;;;;;;;0.30;0.30;;;15.10;99.90;;;;;;5081735;28;20094;-80
2023/03/30 12:19:05;;;;;;;0.08;0.08;;;15.20;99.90;;;;;;5098720;28;20051;-80
2023/03/30 12:21:43;;;;;;;0.38;0.38;;;15.30;99.90;;;;;;5117069;28;20040;-80
2023/03/30 12:24:14;;;;;;;;;;;15.20;99.90;;;;;;5117120;28;20100;-80
2023/03/30 12:26:40;;;;;;;0.10;0.10;;;15.30;99.90;;;;;;5116563;28;20014;-80
2023/03/30 12:29:08;;;;;;;0.17;0.13;;;15.20;99.90;;;;;;5116510;28;20059;-80
2023/03/30 12:31:54;;;;;;;0.70;0.40;;;15.00;99.90;;;;;;5098249;28;20401;-80
2023/03/30 12:34:32;;;;;;;0.10;0.10;;;15.10;99.90;;;;;;5116531;28;20051;-80
2023/03/30 12:37:25;;;;;;;1.88;0.70;;;15.40;99.90;;;;;;5116207;28;20047;-79
2023/03/30 12:39:56;;;;;;;1.30;0.10;;;15.70;99.90;;;;;;5116093;28;20039;-81
2023/03/30 12:42:33;;;;;;;0.13;0.10;;;15.90;99.90;;;;;;5116411;28;20055;-80
2023/03/30 12:45:22;;;;;;;1.20;0.47;;;16.00;99.90;;;;;;5115947;28;20051;-80
2023/03/30 12:48:01;;;;;;;1.08;0.75;;;16.00;99.90;;;;;;5081259;28;20048;-80
2023/03/30 12:50:51;;;;;;;1.23;0.40;;;16.00;99.90;;;;;;5116390;28;20079;-80
2023/03/30 12:53:45;;;;;;;0.45;0.38;;;16.00;99.90;;;;;;5116090;28;20048;-80
2023/03/30 12:56:25;;;;;;;1.50;0.65;;;16.10;99.90;;;;;;5116033;28;20122;-80
2023/03/30 12:59:14;;;;;;;0.47;0.43;;;16.00;99.90;;;;;;5115528;28;20052;-81
2023/03/30 13:02:00;;;;;;;1.30;0.40;;;16.00;99.90;;;;;;5115556;28;20044;-80
2023/03/30 13:04:31;;;;;;;0.13;0.13;;;16.10;99.90;;;;;;5116085;28;20047;-80
2023/03/30 13:07:07;;;;;;;0.20;0.20;;;16.10;99.90;;;;;;5097606;28;20097;-80
2023/03/30 13:09:52;;;;;;;0.75;0.32;;;16.30;99.90;;;;;;5115800;28;20047;-80
2023/03/30 13:12:37;;;;;;;1.58;0.20;;;16.30;99.90;;;;;;5116088;28;20059;-80
2023/03/30 13:15:15;;;;;;;2.50;0.47;;;16.10;99.90;;;;;;5115482;28;20051;-80